createdAt,value
2019-01-18T00:01:23.833Z,75.00
2019-01-18T00:04:13.322Z,75.50
2019-01-18T00:06:56.502Z,75.30
2019-01-18T00:09:45.980Z,75.20
2019-01-18T00:12:30.208Z,75.30
2019-01-18T00:15:19.840Z,75.20
2019-01-18T00:18:01.584Z,75.30
2019-01-18T00:20:51.131Z,75.50
2019-01-18T00:23:33.317Z,75.00
2019-01-18T00:26:22.830Z,75.70
2019-01-18T00:29:05.012Z,75.70
2019-01-18T00:31:54.510Z,75.90
2019-01-18T00:34:37.121Z,75.90
2019-01-18T00:37:47.712Z,75.40
2019-01-18T00:40:37.247Z,76.20
2019-01-18T00:43:26.843Z,76.20
2019-01-18T00:46:09.349Z,76.30
2019-01-18T00:48:58.826Z,76.50
2019-01-18T00:51:40.929Z,76.40
2019-01-18T00:54:22.986Z,76.20
2019-01-18T01:00:22.207Z,76.00
2019-01-18T01:03:11.760Z,75.70
2019-01-18T01:05:53.991Z,75.40
2019-01-18T01:09:02.383Z,75.00
2019-01-18T01:11:45.165Z,74.90
2019-01-18T01:17:35.842Z,74.30
2019-01-18T01:20:25.354Z,74.10
2019-01-18T01:26:02.494Z,74.60
2019-01-18T01:28:51.999Z,75.00
2019-01-18T01:31:34.034Z,75.10
2019-01-18T01:34:23.544Z,76.40
2019-01-18T01:37:05.354Z,76.60
2019-01-18T01:39:54.916Z,76.90
2019-01-18T01:42:38.344Z,77.00
2019-01-18T01:45:27.850Z,77.70
2019-01-18T01:48:09.567Z,76.80
2019-01-18T01:50:59.149Z,76.60
2019-01-18T01:53:41.698Z,76.50
2019-01-18T01:59:37.926Z,76.50
2019-01-18T02:02:27.561Z,76.20
2019-01-18T02:08:25.418Z,76.50
2019-01-18T02:14:16.294Z,76.30
2019-01-18T02:16:58.347Z,76.40
2019-01-18T02:22:54.365Z,76.30
2019-01-18T02:25:43.973Z,76.50
2019-01-18T02:28:33.460Z,74.60
2019-01-18T02:31:15.889Z,76.10
2019-01-18T02:34:05.399Z,76.00
2019-01-18T02:36:47.679Z,75.90
2019-01-18T02:39:37.208Z,75.90
2019-01-18T02:42:19.692Z,76.40
2019-01-18T02:48:37.610Z,76.00
2019-01-18T02:51:27.102Z,74.90
2019-01-18T02:54:09.558Z,75.40
2019-01-18T02:57:17.948Z,75.40
2019-01-18T03:00:05.055Z,74.70
2019-01-18T03:06:00.149Z,75.10
2019-01-18T03:08:49.662Z,75.10
2019-01-18T03:11:31.484Z,75.10
2019-01-18T03:14:20.989Z,74.90
2019-01-18T03:17:03.112Z,74.30
2019-01-18T03:19:52.591Z,74.50
2019-01-18T03:22:34.279Z,74.10
2019-01-18T03:28:54.582Z,74.00
2019-01-18T03:32:03.020Z,73.70
2019-01-18T03:34:45.526Z,73.60
2019-01-18T03:37:54.072Z,73.70
2019-01-18T03:40:36.061Z,73.60
2019-01-18T03:43:25.550Z,74.40
2019-01-18T03:46:07.927Z,73.30
2019-01-18T03:49:08.065Z,72.40
2019-01-18T03:51:57.605Z,73.50
2019-01-18T03:54:39.529Z,73.10
2019-01-18T03:57:29.028Z,73.20
2019-01-18T04:00:12.534Z,73.10
2019-01-18T04:03:02.065Z,71.50
2019-01-18T04:05:44.248Z,73.80
2019-01-18T04:08:52.650Z,73.10
2019-01-18T04:11:34.772Z,72.10
2019-01-18T04:17:31.136Z,72.50
2019-01-18T04:23:41.780Z,72.70
2019-01-18T04:26:24.180Z,73.00
2019-01-18T04:32:15.239Z,72.00
2019-01-18T04:34:57.754Z,72.00
2019-01-18T04:37:47.384Z,72.00
2019-01-18T04:40:38.647Z,70.90
2019-01-18T04:43:28.194Z,71.70
2019-01-18T04:46:10.472Z,71.90
2019-01-18T04:48:59.967Z,71.60
2019-01-18T04:51:42.048Z,71.80
2019-01-18T04:54:24.400Z,71.70
2019-01-18T04:57:13.978Z,71.60
2019-01-18T04:59:56.019Z,71.70
2019-01-18T05:05:54.201Z,71.80
2019-01-18T05:08:43.785Z,71.70
2019-01-18T05:11:25.851Z,71.20
2019-01-18T05:14:15.432Z,71.90
2019-01-18T05:16:58.038Z,73.00
2019-01-18T05:19:47.544Z,71.90
2019-01-18T05:22:29.308Z,71.60
2019-01-18T05:28:27.581Z,71.40
2019-01-18T05:31:17.185Z,71.50
2019-01-18T05:33:59.612Z,71.50
2019-01-18T05:39:56.438Z,71.20
2019-01-18T05:42:46.179Z,71.90
2019-01-18T05:45:35.687Z,71.70
2019-01-18T05:48:21.761Z,71.10
2019-01-18T05:51:04.359Z,71.10
2019-01-18T05:53:46.346Z,71.20
2019-01-18T05:56:35.993Z,70.60
2019-01-18T05:59:44.436Z,70.50
2019-01-18T06:02:27.265Z,70.60
2019-01-18T06:08:25.425Z,70.20
2019-01-18T06:11:14.972Z,69.90
2019-01-18T06:13:57.406Z,70.60
2019-01-18T06:17:07.230Z,70.00
2019-01-18T06:19:52.357Z,69.70
2019-01-18T06:22:41.931Z,69.60
2019-01-18T06:25:24.279Z,69.70
2019-01-18T06:28:13.812Z,70.00
2019-01-18T06:31:01.595Z,70.20
2019-01-18T06:33:47.484Z,70.30
2019-01-18T06:36:30.072Z,70.20
2019-01-18T06:39:19.616Z,70.20
2019-01-18T06:42:02.143Z,70.10
2019-01-18T06:45:10.540Z,70.20
2019-01-18T06:47:53.119Z,69.60
2019-01-18T06:53:52.536Z,70.10
2019-01-18T06:56:42.098Z,70.40
2019-01-18T06:59:24.139Z,70.70
2019-01-18T07:02:13.671Z,71.00
2019-01-18T07:04:56.022Z,70.90
2019-01-18T07:07:45.728Z,70.60
2019-01-18T07:10:35.305Z,71.00
2019-01-18T07:13:18.637Z,71.00
2019-01-18T07:19:16.156Z,70.90
2019-01-18T07:22:05.897Z,71.00
2019-01-18T07:24:48.382Z,71.20
2019-01-18T07:27:57.058Z,71.00
2019-01-18T07:30:40.211Z,70.90
2019-01-18T07:33:29.763Z,70.80
2019-01-18T07:36:12.624Z,70.70
2019-01-18T07:39:02.404Z,70.00
2019-01-18T07:41:45.414Z,71.20
2019-01-18T07:44:34.936Z,70.40
2019-01-18T07:47:18.101Z,69.80
2019-01-18T07:53:30.088Z,68.60
2019-01-18T07:56:11.932Z,69.50
2019-01-18T07:59:01.457Z,69.70
2019-01-18T08:01:43.191Z,69.60
2019-01-18T08:04:32.713Z,68.40
2019-01-18T08:07:15.405Z,69.80
2019-01-18T08:13:32.137Z,70.00
2019-01-18T08:16:21.676Z,71.10
2019-01-18T08:19:11.182Z,70.20
2019-01-18T08:21:53.329Z,70.50
2019-01-18T08:24:42.863Z,70.70
2019-01-18T08:27:24.555Z,71.20
2019-01-18T08:30:16.903Z,71.60
2019-01-18T08:33:25.402Z,71.80
2019-01-18T08:36:14.950Z,72.20
2019-01-18T08:38:57.123Z,72.30
2019-01-18T08:41:46.670Z,71.70
2019-01-18T08:44:28.591Z,72.60
2019-01-18T08:50:25.184Z,74.20
2019-01-18T08:53:14.755Z,72.20
2019-01-18T08:56:04.666Z,72.30
2019-01-18T08:58:47.114Z,71.80
2019-01-18T09:01:36.727Z,72.20
2019-01-18T09:04:20.230Z,73.70
2019-01-18T09:07:02.532Z,71.50
2019-01-18T09:12:53.212Z,73.60
2019-01-18T09:15:42.732Z,72.20
2019-01-18T09:21:18.151Z,72.00
2019-01-18T09:24:07.694Z,72.10
2019-01-18T09:26:50.261Z,72.20
2019-01-18T09:29:39.833Z,72.00
2019-01-18T09:32:22.501Z,72.50
2019-01-18T09:38:27.257Z,71.50
2019-01-18T09:41:16.799Z,71.70
2019-01-18T09:44:06.334Z,72.10
2019-01-18T09:46:48.875Z,72.20
2019-01-18T09:49:38.417Z,72.00
2019-01-18T09:52:20.970Z,71.60
2019-01-18T09:55:10.573Z,71.80
2019-01-18T09:57:53.077Z,71.20
2019-01-18T10:00:42.565Z,71.50
2019-01-18T10:03:25.197Z,71.80
2019-01-18T10:06:14.823Z,71.10
2019-01-18T10:08:56.893Z,71.70
2019-01-18T10:11:46.414Z,71.20
2019-01-18T10:14:28.780Z,72.00
2019-01-18T10:17:18.290Z,71.50
2019-01-18T10:20:02.683Z,71.50
2019-01-18T10:22:52.145Z,71.60
2019-01-18T10:25:41.694Z,71.20
2019-01-18T10:28:23.851Z,70.60
2019-01-18T10:31:13.640Z,70.80
2019-01-18T10:33:55.929Z,71.30
2019-01-18T10:36:48.462Z,71.60
2019-01-18T10:39:30.103Z,71.50
2019-01-18T10:42:19.614Z,71.50
2019-01-18T10:45:01.614Z,73.30
2019-01-18T10:47:51.259Z,72.40
2019-01-18T10:53:48.689Z,73.00
2019-01-18T10:56:38.316Z,73.30
2019-01-18T10:59:20.800Z,72.70
2019-01-18T11:02:10.287Z,73.30
2019-01-18T11:04:52.766Z,73.20
2019-01-18T11:10:50.580Z,74.10
2019-01-18T11:13:40.105Z,73.40
2019-01-18T11:16:22.601Z,73.20
2019-01-18T11:19:12.135Z,73.00
2019-01-18T11:21:53.964Z,72.40
2019-01-18T11:27:51.287Z,72.70
2019-01-18T11:30:40.805Z,69.40
2019-01-18T11:33:30.291Z,68.30
2019-01-18T11:36:12.304Z,68.10
2019-01-18T11:41:54.917Z,67.90
2019-01-18T11:44:44.429Z,67.90
2019-01-18T11:50:49.277Z,68.80
2019-01-18T11:53:31.047Z,70.10
2019-01-18T11:56:20.581Z,70.80
2019-01-18T11:59:21.789Z,71.20
2019-01-18T12:01:52.443Z,72.00
2019-01-18T12:04:42.047Z,72.40
2019-01-18T12:07:24.905Z,72.60
2019-01-18T12:13:42.992Z,73.30
2019-01-18T12:16:25.361Z,73.20
2019-01-18T12:19:15.079Z,73.00
2019-01-18T12:21:58.317Z,73.10
2019-01-18T12:27:54.571Z,72.50
2019-01-18T12:30:44.143Z,73.40
2019-01-18T12:33:33.778Z,72.40
2019-01-18T12:36:16.255Z,72.50
2019-01-18T12:39:45.938Z,73.30
2019-01-18T12:42:27.808Z,73.70
2019-01-18T12:48:44.955Z,73.70
2019-01-18T12:54:37.274Z,74.30
2019-01-18T12:57:19.814Z,74.40
2019-01-18T13:03:38.009Z,75.80
2019-01-18T13:06:27.672Z,74.70
2019-01-18T13:09:17.236Z,74.30
2019-01-18T13:11:59.421Z,75.10
2019-01-18T13:14:42.150Z,75.30
2019-01-18T13:17:31.745Z,75.40
2019-01-18T13:20:14.389Z,75.40
2019-01-18T13:23:03.921Z,75.50
2019-01-18T13:25:46.593Z,75.70
2019-01-18T13:31:31.217Z,75.10
2019-01-18T13:34:20.766Z,74.60
2019-01-18T13:37:03.401Z,75.30
2019-01-18T13:39:52.926Z,76.10
2019-01-18T13:42:35.232Z,75.20
2019-01-18T13:45:43.649Z,74.70
2019-01-18T13:48:26.322Z,75.50
2019-01-18T13:54:23.952Z,75.60
2019-01-18T14:00:20.586Z,75.70
2019-01-18T14:03:10.147Z,74.80
2019-01-18T14:05:59.710Z,75.70
2019-01-18T14:08:42.243Z,75.70
2019-01-18T14:11:31.811Z,75.60
2019-01-18T14:14:14.417Z,75.50
2019-01-18T14:17:03.959Z,75.80
2019-01-18T14:19:45.651Z,75.70
2019-01-18T14:22:35.186Z,75.90
2019-01-18T14:25:17.462Z,75.40
2019-01-18T14:28:09.746Z,76.00
2019-01-18T14:30:52.345Z,75.90
2019-01-18T14:33:41.909Z,75.60
2019-01-18T14:36:24.230Z,75.30
2019-01-18T14:39:08.615Z,76.00
2019-01-18T14:42:17.215Z,76.00
2019-01-18T14:45:04.526Z,76.10
2019-01-18T14:47:54.043Z,75.70
2019-01-18T14:51:02.603Z,76.40
2019-01-18T14:53:45.066Z,76.20
2019-01-18T14:56:34.597Z,76.10
2019-01-18T14:59:18.655Z,76.20
2019-01-18T15:02:08.233Z,76.20
2019-01-18T15:04:50.256Z,76.40
2019-01-18T15:07:39.835Z,76.30
2019-01-18T15:10:22.351Z,76.60
2019-01-18T15:13:31.522Z,76.50
2019-01-18T15:16:15.945Z,76.50
2019-01-18T15:19:05.566Z,76.60
2019-01-18T15:21:47.908Z,76.60
2019-01-18T15:24:30.133Z,76.50
2019-01-18T15:27:19.702Z,76.40
2019-01-18T15:30:01.854Z,76.60
2019-01-18T15:32:51.408Z,76.60
2019-01-18T15:35:35.710Z,76.60
2019-01-18T15:38:17.642Z,76.60
2019-01-18T15:44:10.709Z,76.50
2019-01-18T15:50:08.455Z,76.50
2019-01-18T15:52:58.106Z,76.50
2019-01-18T15:56:06.577Z,76.50
2019-01-18T15:58:48.927Z,76.60
2019-01-18T16:04:53.184Z,76.30
2019-01-18T16:10:25.247Z,76.20
2019-01-18T16:13:14.775Z,76.20
2019-01-18T16:16:16.034Z,76.00
2019-01-18T16:19:05.562Z,76.10
2019-01-18T16:21:49.067Z,76.60
2019-01-18T16:30:40.169Z,75.40
2019-01-18T16:34:10.376Z,75.80
2019-01-18T16:36:52.520Z,76.30
2019-01-18T16:39:42.080Z,76.30
2019-01-18T16:42:24.695Z,75.60
2019-01-18T16:45:14.268Z,76.20
2019-01-18T16:47:57.063Z,76.10
2019-01-18T16:50:46.942Z,76.20
2019-01-18T16:53:29.456Z,76.20
2019-01-18T16:56:18.956Z,76.10
2019-01-18T16:59:01.306Z,76.20
2019-01-18T17:01:50.834Z,76.20
2019-01-18T17:04:33.280Z,76.30
2019-01-18T17:07:15.514Z,76.20
2019-01-18T17:14:01.172Z,76.20
2019-01-18T17:16:45.063Z,76.10
2019-01-18T17:22:35.631Z,76.00
2019-01-18T17:25:17.821Z,76.10
2019-01-18T17:28:07.352Z,75.50
2019-01-18T17:30:49.176Z,76.10
2019-01-18T17:33:38.737Z,76.10
2019-01-18T17:36:41.332Z,76.40
2019-01-18T17:43:04.077Z,76.10
2019-01-18T17:46:32.500Z,75.90
2019-01-18T17:49:33.824Z,75.70
2019-01-18T17:53:03.705Z,75.80
2019-01-18T17:56:06.011Z,75.70
2019-01-18T18:02:51.220Z,75.50
2019-01-18T18:06:13.904Z,75.90
2019-01-18T18:12:49.466Z,75.90
2019-01-18T18:19:35.041Z,76.00
2019-01-18T18:23:02.768Z,75.90
2019-01-18T18:26:30.425Z,75.90
2019-01-18T18:29:56.375Z,75.80
2019-01-18T18:33:24.283Z,75.90
2019-01-18T18:36:31.171Z,75.90
2019-01-18T18:43:23.533Z,75.90
2019-01-18T18:46:23.830Z,75.70
2019-01-18T18:49:51.511Z,75.90
2019-01-18T18:52:51.742Z,75.90
2019-01-18T18:56:19.446Z,75.90
2019-01-18T18:59:21.700Z,75.70
2019-01-18T19:02:50.643Z,75.90
2019-01-18T19:05:58.014Z,76.00
2019-01-18T19:09:52.439Z,76.20
2019-01-18T19:19:36.873Z,76.20
2019-01-18T19:22:38.027Z,76.40
2019-01-18T19:26:05.921Z,76.10
2019-01-18T19:29:42.476Z,75.70
2019-01-18T19:32:51.922Z,77.00
2019-01-18T19:36:20.676Z,76.10
2019-01-18T19:39:48.323Z,75.80
2019-01-18T19:42:49.861Z,75.90
2019-01-18T19:46:17.811Z,75.80
2019-01-18T19:49:18.772Z,75.50
2019-01-18T19:56:02.223Z,75.40
2019-01-18T19:59:29.936Z,75.10
2019-01-18T20:06:22.086Z,75.70
2019-01-18T20:09:23.775Z,75.60
2019-01-18T20:12:51.472Z,75.60
2019-01-18T20:16:19.329Z,75.70
2019-01-18T20:19:20.937Z,75.40
2019-01-18T20:22:48.631Z,75.80
2019-01-18T20:29:33.242Z,75.60
2019-01-18T20:33:01.642Z,75.70
2019-01-18T20:36:03.281Z,75.70
2019-01-18T20:39:30.998Z,75.70
2019-01-18T20:42:20.251Z,75.80
2019-01-18T20:45:48.208Z,75.40
2019-01-18T20:48:50.450Z,75.40
2019-01-18T21:02:46.245Z,75.60
2019-01-18T21:05:53.836Z,75.50
2019-01-18T21:09:22.876Z,75.00
2019-01-18T21:12:26.307Z,75.50
2019-01-18T21:19:05.210Z,75.50
2019-01-18T21:26:07.268Z,75.50
2019-01-18T21:29:08.378Z,75.60
2019-01-18T21:32:36.086Z,75.50
2019-01-18T21:36:03.802Z,75.50
2019-01-18T21:39:04.841Z,75.30
2019-01-18T21:42:18.026Z,75.60
2019-01-18T21:45:19.336Z,75.70
2019-01-18T21:51:48.793Z,75.70
2019-01-18T21:54:52.861Z,75.60
2019-01-18T21:58:20.476Z,75.50
2019-01-18T22:01:22.391Z,74.90
2019-01-18T22:04:50.055Z,75.70
2019-01-18T22:07:50.905Z,76.50
2019-01-18T22:11:18.617Z,75.70
2019-01-18T22:21:30.311Z,75.70
2019-01-18T22:24:32.065Z,75.60
2019-01-18T22:27:59.707Z,75.50
2019-01-18T22:30:47.932Z,74.80
2019-01-18T22:34:20.129Z,75.30
2019-01-18T22:37:20.938Z,75.30
2019-01-18T22:40:48.585Z,75.40
2019-01-18T22:47:32.792Z,75.30
2019-01-18T22:50:34.251Z,74.80
2019-01-18T22:54:01.883Z,75.40
2019-01-18T22:57:03.514Z,75.50
2019-01-18T23:00:50.060Z,75.40
2019-01-18T23:03:40.266Z,75.40
2019-01-18T23:07:07.888Z,75.40
2019-01-18T23:10:15.090Z,75.30
2019-01-18T23:13:18.827Z,75.30
2019-01-18T23:16:46.512Z,75.30
2019-01-18T23:23:37.778Z,75.00
2019-01-18T23:26:40.223Z,75.00
2019-01-18T23:30:15.542Z,74.40
2019-01-18T23:33:17.144Z,75.00
2019-01-18T23:36:44.810Z,75.90
2019-01-18T23:39:47.948Z,75.00
2019-01-18T23:50:18.633Z,75.10
2019-01-18T23:53:46.339Z,75.30
2019-01-18T23:57:13.981Z,75.40
